createdAt,value
2022-11-01T09:44:23.901Z,18.40
2022-11-01T09:46:55.440Z,14.27
2022-11-01T09:49:29.782Z,13.32
2022-11-01T09:51:57.042Z,20.40
2022-11-01T09:54:24.395Z,14.93
2022-11-01T09:56:58.850Z,20.55
2022-11-01T09:59:38.358Z,11.07
2022-11-01T10:02:41.610Z,14.27
2022-11-01T10:05:22.565Z,9.35
2022-11-01T10:08:02.866Z,9.13
2022-11-01T10:10:48.680Z,11.73
2022-11-01T10:13:34.073Z,8.48
2022-11-01T10:16:06.639Z,10.77
2022-11-01T10:18:37.596Z,9.82
2022-11-01T10:21:08.857Z,8.45
2022-11-01T10:23:40.850Z,9.93
2022-11-01T10:26:07.830Z,8.20
2022-11-01T10:28:48.162Z,5.90
2022-11-01T10:34:04.653Z,9.23
2022-11-01T10:36:35.540Z,8.65
2022-11-01T10:40:01.482Z,5.97
2022-11-01T10:42:29.957Z,7.35
2022-11-01T10:44:59.709Z,6.15
2022-11-01T10:47:28.158Z,4.60
2022-11-01T10:50:10.576Z,6.28
2022-11-01T10:52:48.938Z,5.25
2022-11-01T10:55:29.100Z,7.22
2022-11-01T10:58:04.546Z,9.10
2022-11-01T11:00:32.734Z,9.57
2022-11-01T11:03:02.212Z,5.05
2022-11-01T11:05:29.345Z,6.40
2022-11-01T11:07:59.054Z,7.53
2022-11-01T11:10:27.214Z,8.90
2022-11-01T11:13:01.702Z,7.88
2022-11-01T11:15:50.140Z,6.07
2022-11-01T11:18:37.780Z,5.00
2022-11-01T11:21:11.914Z,4.97
2022-11-01T11:23:46.296Z,9.80
2022-11-01T11:26:53.209Z,7.75
2022-11-01T11:30:32.412Z,7.40
2022-11-01T11:33:00.103Z,8.02
2022-11-01T11:35:28.472Z,4.43
2022-11-01T11:38:03.195Z,5.20
2022-11-01T11:40:38.983Z,5.65
2022-11-01T11:43:31.852Z,3.00
2022-11-01T11:46:12.328Z,4.88
2022-11-01T11:49:00.747Z,5.53
2022-11-01T11:51:31.195Z,5.50
2022-11-01T11:54:25.374Z,7.28
2022-11-01T11:56:53.743Z,5.13
2022-11-01T11:59:26.361Z,5.63
2022-11-01T12:02:03.883Z,4.95
2022-11-01T12:04:58.457Z,3.00
2022-11-01T12:07:30.823Z,3.70
2022-11-01T12:10:04.783Z,6.47
2022-11-01T12:12:33.051Z,2.70
2022-11-01T12:15:00.456Z,4.03
2022-11-01T12:17:33.104Z,3.28
2022-11-01T12:20:22.946Z,11.93
2022-11-01T12:23:01.523Z,6.97
2022-11-01T12:25:29.005Z,5.38
2022-11-01T12:28:01.937Z,5.88
2022-11-01T12:30:31.190Z,6.18
2022-11-01T12:32:59.213Z,5.72
2022-11-01T12:35:37.898Z,2.55
2022-11-01T12:38:37.153Z,3.75
2022-11-01T12:41:42.054Z,4.35
2022-11-01T12:44:32.658Z,4.82
2022-11-01T12:47:13.930Z,3.75
2022-11-01T12:50:01.784Z,5.72
2022-11-01T12:52:35.073Z,6.35
2022-11-01T12:55:09.611Z,3.95
2022-11-01T12:57:37.146Z,3.85
2022-11-01T13:00:05.881Z,9.98
2022-11-01T13:02:47.458Z,3.25
2022-11-01T13:05:25.249Z,6.18
2022-11-01T13:08:13.169Z,3.92
2022-11-01T13:10:44.088Z,4.95
2022-11-01T13:13:15.309Z,6.35
2022-11-01T13:16:01.483Z,9.77
2022-11-01T13:18:34.346Z,5.60
2022-11-01T13:21:24.439Z,6.68
2022-11-01T13:23:53.259Z,6.95
2022-11-01T13:26:24.875Z,6.47
2022-11-01T13:28:58.300Z,6.80
2022-11-01T13:31:40.669Z,5.53
2022-11-01T13:34:26.753Z,5.15
2022-11-01T13:37:04.598Z,5.22
2022-11-01T13:39:50.278Z,4.57
2022-11-01T13:42:22.394Z,5.90
2022-11-01T13:44:56.445Z,7.03
2022-11-01T13:50:43.246Z,5.93
2022-11-01T13:53:14.672Z,5.07
2022-11-01T13:56:04.484Z,7.43
2022-11-01T13:58:32.887Z,4.47
2022-11-01T14:01:45.740Z,10.23
2022-11-01T14:04:19.079Z,12.00
2022-11-01T14:07:10.393Z,10.45
2022-11-01T14:09:55.412Z,8.43
2022-11-01T14:12:44.893Z,13.50
2022-11-01T14:15:27.205Z,15.77
2022-11-01T14:17:56.032Z,17.90
2022-11-01T14:20:28.465Z,22.00
2022-11-01T14:22:56.045Z,22.75
2022-11-01T14:25:22.828Z,17.30
2022-11-01T14:27:52.010Z,22.65
2022-11-01T14:30:23.672Z,23.27
2022-11-01T14:33:00.780Z,33.10
2022-11-01T14:35:37.237Z,24.20
2022-11-01T14:38:07.087Z,16.90
2022-11-01T14:40:39.930Z,23.13
2022-11-01T14:43:24.305Z,27.33
2022-11-01T14:46:14.553Z,22.67
2022-11-01T14:48:52.408Z,21.27
2022-11-01T14:51:32.116Z,23.60
2022-11-01T14:54:21.745Z,19.13
2022-11-01T14:56:49.938Z,15.18
2022-11-01T14:59:24.161Z,19.77
2022-11-01T15:02:01.079Z,15.35
2022-11-01T15:04:31.678Z,17.23
2022-11-01T15:06:59.178Z,17.88
2022-11-01T15:09:30.306Z,18.67
2022-11-01T15:12:07.242Z,17.73
2022-11-01T15:14:44.670Z,14.70
2022-11-01T15:17:22.993Z,14.93
2022-11-01T15:19:52.412Z,15.95
2022-11-01T15:22:21.588Z,13.93
2022-11-01T15:24:49.377Z,11.95
2022-11-01T15:27:20.854Z,11.95
2022-11-01T15:29:47.889Z,18.95
2022-11-01T15:32:23.671Z,15.55
2022-11-01T15:34:54.412Z,15.25
2022-11-01T15:37:25.146Z,13.82
2022-11-01T15:42:38.286Z,21.20
2022-11-01T15:45:31.155Z,17.52
2022-11-01T15:48:08.604Z,25.05
2022-11-01T15:50:37.868Z,30.65
2022-11-01T15:53:07.472Z,18.67
2022-11-01T15:55:36.272Z,26.58
2022-11-01T15:58:32.237Z,28.40
2022-11-01T16:01:03.812Z,26.85
2022-11-01T16:03:47.164Z,24.33
2022-11-01T16:06:27.320Z,25.85
2022-11-01T16:08:55.484Z,20.58
2022-11-01T16:11:24.021Z,16.88
2022-11-01T16:13:52.956Z,19.40
2022-11-01T16:16:19.830Z,10.98
2022-11-01T16:18:47.570Z,12.90
2022-11-01T16:21:20.560Z,16.10
2022-11-01T16:23:52.439Z,9.77
2022-11-01T16:26:19.603Z,17.05
2022-11-01T16:28:46.713Z,13.18
2022-11-01T16:31:28.577Z,14.32
2022-11-01T16:33:56.319Z,11.68
2022-11-01T16:36:38.742Z,7.93
2022-11-01T16:39:31.333Z,9.43
2022-11-01T16:44:30.686Z,72.90
2022-11-01T16:46:57.580Z,117.90
2022-11-01T16:49:26.772Z,156.52
2022-11-01T16:51:56.476Z,145.50
2022-11-01T16:54:24.375Z,150.43
2022-11-01T16:56:54.962Z,158.48
2022-11-01T16:59:33.662Z,149.05
2022-11-01T17:02:01.053Z,151.15
2022-11-01T17:04:28.274Z,146.20
2022-11-01T17:09:29.211Z,141.48
2022-11-01T17:14:35.486Z,142.85
2022-11-01T17:17:07.303Z,132.70
2022-11-01T17:19:35.351Z,117.18
2022-11-01T17:22:04.880Z,117.00
2022-11-01T17:24:33.530Z,125.03
2022-11-01T17:27:02.402Z,103.07
2022-11-01T17:29:29.732Z,121.28
2022-11-01T17:31:56.538Z,102.43
2022-11-01T17:34:24.437Z,95.05
2022-11-01T17:36:51.601Z,98.05
2022-11-01T17:39:18.876Z,100.25
2022-11-01T17:41:45.789Z,99.78
2022-11-01T17:44:12.844Z,81.75
2022-11-01T17:46:40.129Z,78.75
2022-11-01T17:49:07.026Z,65.22
2022-11-01T17:51:34.343Z,64.95
2022-11-01T17:54:01.164Z,72.35
2022-11-01T17:56:27.961Z,71.03
2022-11-01T17:58:54.765Z,67.15
2022-11-01T18:01:21.841Z,72.75
2022-11-01T18:03:49.006Z,66.18
2022-11-01T18:06:15.894Z,69.43
2022-11-01T18:08:47.391Z,58.97
2022-11-01T18:14:31.867Z,47.58
2022-11-01T18:17:05.401Z,49.08
2022-11-01T18:20:01.453Z,45.30
2022-11-01T18:22:32.387Z,41.38
2022-11-01T18:25:17.404Z,43.13
2022-11-01T18:27:44.293Z,43.85
2022-11-01T18:30:18.654Z,34.67
2022-11-01T18:32:50.300Z,30.98
2022-11-01T18:35:32.309Z,31.83
2022-11-01T18:38:35.300Z,32.80
2022-11-01T18:41:03.294Z,37.03
2022-11-01T18:43:34.283Z,31.00
2022-11-01T18:48:56.241Z,29.77
2022-11-01T18:51:26.663Z,30.65
2022-11-01T18:54:01.932Z,27.55
2022-11-01T18:56:29.542Z,24.27
2022-11-01T18:58:56.454Z,21.45
2022-11-01T19:01:31.882Z,21.77
2022-11-01T19:04:01.716Z,19.73
2022-11-01T19:06:28.592Z,24.05
2022-11-01T19:08:56.901Z,19.23
2022-11-01T19:11:26.638Z,18.42
2022-11-01T19:13:53.938Z,17.42
2022-11-01T19:16:20.712Z,17.88
2022-11-01T19:18:49.773Z,17.20
2022-11-01T19:21:18.764Z,16.85
2022-11-01T19:23:50.603Z,23.73
2022-11-01T19:26:32.188Z,21.10
2022-11-01T19:28:59.090Z,20.70
2022-11-01T19:31:32.859Z,16.60
2022-11-01T19:34:02.846Z,18.85
2022-11-01T19:36:40.924Z,18.70
2022-11-01T19:39:29.406Z,15.77
2022-11-01T19:42:00.413Z,16.05
2022-11-01T19:44:27.632Z,16.67
2022-11-01T19:46:57.502Z,14.07
2022-11-01T19:49:29.882Z,14.57
2022-11-01T19:52:08.289Z,15.15
2022-11-01T19:54:36.413Z,11.75
2022-11-01T19:57:16.167Z,8.82
2022-11-01T19:59:43.020Z,11.00
2022-11-01T20:02:22.144Z,6.03
2022-11-01T20:04:52.010Z,13.73
2022-11-01T20:07:20.168Z,5.53
2022-11-01T20:09:47.326Z,5.47
2022-11-01T20:12:18.649Z,7.70
2022-11-01T20:14:48.395Z,5.75
2022-11-01T20:17:15.817Z,4.63
2022-11-01T20:19:43.766Z,7.85
2022-11-01T20:22:10.631Z,5.95
2022-11-01T20:24:37.398Z,6.97
2022-11-01T20:27:04.197Z,5.93
2022-11-01T20:29:31.016Z,6.80
2022-11-01T20:31:57.825Z,6.25
2022-11-01T20:34:25.761Z,9.80
2022-11-01T20:37:14.904Z,9.20
2022-11-01T20:39:39.450Z,8.63
2022-11-01T20:42:08.149Z,9.73
2022-11-01T20:44:34.982Z,5.95
2022-11-01T20:47:01.849Z,4.68
2022-11-01T20:49:28.623Z,8.30
2022-11-01T20:51:57.695Z,6.20
2022-11-01T20:54:31.327Z,6.60
2022-11-01T20:59:35.895Z,6.00
2022-11-01T21:02:04.261Z,7.38
2022-11-01T21:04:31.201Z,6.47
2022-11-01T21:06:58.102Z,7.43
2022-11-01T21:09:30.827Z,8.05
2022-11-01T21:11:58.456Z,5.65
2022-11-01T21:14:25.251Z,6.63
2022-11-01T21:16:53.039Z,6.97
2022-11-01T21:19:23.663Z,4.78
2022-11-01T21:21:53.133Z,8.10
2022-11-01T21:24:33.939Z,6.03
2022-11-01T21:27:12.749Z,7.70
2022-11-01T21:29:47.328Z,6.15
2022-11-01T21:32:30.637Z,6.97
2022-11-01T21:34:58.075Z,6.40
2022-11-01T21:37:27.669Z,5.78
2022-11-01T21:39:59.002Z,5.80
2022-11-01T21:42:33.379Z,5.35
2022-11-01T21:45:00.373Z,5.07
2022-11-01T21:47:32.785Z,4.43
2022-11-01T21:49:59.598Z,6.07
2022-11-01T21:52:26.411Z,6.53
2022-11-01T21:54:53.386Z,4.50
2022-11-01T21:57:20.252Z,5.30
2022-11-01T21:59:47.277Z,6.50
2022-11-01T22:02:14.575Z,3.70
2022-11-01T22:04:41.597Z,6.93
2022-11-01T22:07:08.913Z,4.80
2022-11-01T22:09:36.136Z,5.57
2022-11-01T22:12:03.130Z,5.57
2022-11-01T22:14:30.013Z,5.82
2022-11-01T22:16:57.076Z,5.80
2022-11-01T22:19:23.892Z,7.05
2022-11-01T22:21:50.750Z,5.82
2022-11-01T22:24:17.617Z,6.60
2022-11-01T22:26:44.423Z,6.22
2022-11-01T22:29:11.219Z,7.78
2022-11-01T22:31:38.008Z,5.82
2022-11-01T22:34:04.826Z,8.68
2022-11-01T22:36:34.885Z,3.95
2022-11-01T22:39:03.135Z,6.13
2022-11-01T22:41:34.262Z,4.40
2022-11-01T22:44:04.431Z,4.72
2022-11-01T22:46:53.638Z,4.53
2022-11-01T22:49:44.342Z,7.18
2022-11-01T22:52:32.107Z,5.30
2022-11-01T22:55:04.868Z,5.45
2022-11-01T22:57:36.093Z,5.82
2022-11-01T23:00:21.041Z,4.15
2022-11-01T23:02:48.054Z,5.95
2022-11-01T23:05:22.411Z,5.28
2022-11-01T23:07:53.079Z,5.35
2022-11-01T23:10:34.012Z,6.45
2022-11-01T23:13:31.358Z,5.32
2022-11-01T23:16:02.669Z,5.50
2022-11-01T23:18:32.041Z,5.18
2022-11-01T23:21:03.150Z,4.00
2022-11-01T23:23:29.927Z,4.22
2022-11-01T23:25:57.306Z,4.93
2022-11-01T23:28:24.672Z,5.72
2022-11-01T23:33:23.884Z,6.10
2022-11-01T23:35:50.642Z,3.78
2022-11-01T23:38:20.219Z,5.97
2022-11-01T23:40:47.040Z,3.83
2022-11-01T23:43:20.909Z,3.63
2022-11-01T23:45:47.874Z,4.28
2022-11-01T23:48:14.648Z,4.22
2022-11-01T23:50:41.446Z,4.38
2022-11-01T23:53:14.978Z,4.15
2022-11-01T23:55:50.781Z,3.30
2022-11-01T23:58:22.588Z,5.00
